sensor_id;sensor_type;location;lat;lon;timestamp;pressure;altitude;pressure_sealevel;temperature;humidity
8069;BME280;4077;43.702;24.896;2023-02-04T00:01:17;99196.28;;;2.70;100.00
8069;BME280;4077;43.702;24.896;2023-02-04T00:03:43;99131.00;;;2.28;100.00
8069;BME280;4077;43.702;24.896;2023-02-04T00:06:09;99158.09;;;2.48;100.00
8069;BME280;4077;43.702;24.896;2023-02-04T00:08:34;99188.75;;;2.73;100.00
8069;BME280;4077;43.702;24.896;2023-02-04T00:11:02;99185.22;;;2.70;100.00
8069;BME280;4077;43.702;24.896;2023-02-04T00:13:27;99181.00;;;2.70;100.00
8069;BME280;4077;43.702;24.896;2023-02-04T00:15:52;99156.91;;;2.62;100.00
8069;BME280;4077;43.702;24.896;2023-02-04T00:18:18;99153.66;;;2.66;100.00
8069;BME280;4077;43.702;24.896;2023-02-04T00:20:43;99146.97;;;2.68;100.00
8069;BME280;4077;43.702;24.896;2023-02-04T00:23:08;99149.50;;;2.68;100.00
8069;BME280;4077;43.702;24.896;2023-02-04T00:25:34;99123.63;;;2.58;100.00
8069;BME280;4077;43.702;24.896;2023-02-04T00:27:59;99135.81;;;2.66;100.00
8069;BME280;4077;43.702;24.896;2023-02-04T00:30:25;99128.94;;;2.64;100.00
8069;BME280;4077;43.702;24.896;2023-02-04T00:32:54;99119.63;;;2.64;100.00
8069;BME280;4077;43.702;24.896;2023-02-04T00:35:21;99105.78;;;2.58;100.00
8069;BME280;4077;43.702;24.896;2023-02-04T00:37:47;99107.88;;;2.68;100.00
8069;BME280;4077;43.702;24.896;2023-02-04T00:40:12;99096.63;;;2.63;100.00
8069;BME280;4077;43.702;24.896;2023-02-04T00:42:38;99094.13;;;2.64;100.00
8069;BME280;4077;43.702;24.896;2023-02-04T00:45:03;99090.91;;;2.68;100.00
8069;BME280;4077;43.702;24.896;2023-02-04T00:47:29;99079.16;;;2.73;100.00
8069;BME280;4077;43.702;24.896;2023-02-04T00:49:54;99014.34;;;2.41;100.00
8069;BME280;4077;43.702;24.896;2023-02-04T00:52:20;99070.63;;;2.71;100.00
8069;BME280;4077;43.702;24.896;2023-02-04T00:54:45;99075.84;;;2.74;100.00
8069;BME280;4077;43.702;24.896;2023-02-04T00:57:11;99076.56;;;2.72;100.00
8069;BME280;4077;43.702;24.896;2023-02-04T00:59:36;99054.28;;;2.66;100.00
8069;BME280;4077;43.702;24.896;2023-02-04T01:02:01;99056.78;;;2.65;100.00
8069;BME280;4077;43.702;24.896;2023-02-04T01:04:27;99055.53;;;2.78;100.00
8069;BME280;4077;43.702;24.896;2023-02-04T01:06:53;99046.31;;;2.81;100.00
8069;BME280;4077;43.702;24.896;2023-02-04T01:09:19;99044.69;;;2.83;100.00
8069;BME280;4077;43.702;24.896;2023-02-04T01:11:45;99036.88;;;2.79;100.00
8069;BME280;4077;43.702;24.896;2023-02-04T01:14:11;99027.47;;;2.76;100.00
8069;BME280;4077;43.702;24.896;2023-02-04T01:16:36;99028.59;;;2.84;100.00
8069;BME280;4077;43.702;24.896;2023-02-04T01:19:02;99024.16;;;2.79;100.00
8069;BME280;4077;43.702;24.896;2023-02-04T01:21:27;99014.78;;;2.78;100.00
8069;BME280;4077;43.702;24.896;2023-02-04T01:23:52;99021.72;;;2.82;100.00
8069;BME280;4077;43.702;24.896;2023-02-04T01:26:18;99013.94;;;2.79;100.00
8069;BME280;4077;43.702;24.896;2023-02-04T01:28:44;99013.13;;;2.80;100.00
8069;BME280;4077;43.702;24.896;2023-02-04T01:31:09;99021.91;;;2.88;100.00
8069;BME280;4077;43.702;24.896;2023-02-04T01:33:35;99015.06;;;2.87;100.00
8069;BME280;4077;43.702;24.896;2023-02-04T01:36:00;99005.50;;;2.80;100.00
8069;BME280;4077;43.702;24.896;2023-02-04T01:38:25;99016.81;;;2.88;100.00
8069;BME280;4077;43.702;24.896;2023-02-04T01:40:51;99004.75;;;2.82;100.00
8069;BME280;4077;43.702;24.896;2023-02-04T01:43:17;98998.06;;;2.86;100.00
8069;BME280;4077;43.702;24.896;2023-02-04T01:45:44;98999.09;;;2.91;100.00
8069;BME280;4077;43.702;24.896;2023-02-04T01:48:09;98941.94;;;2.59;100.00
8069;BME280;4077;43.702;24.896;2023-02-04T01:50:37;98911.72;;;2.44;100.00
8069;BME280;4077;43.702;24.896;2023-02-04T01:53:03;98973.47;;;2.88;100.00
8069;BME280;4077;43.702;24.896;2023-02-04T01:55:30;98963.41;;;2.91;100.00
8069;BME280;4077;43.702;24.896;2023-02-04T01:57:56;98951.44;;;2.88;100.00
8069;BME280;4077;43.702;24.896;2023-02-04T02:00:31;98953.25;;;2.92;100.00
8069;BME280;4077;43.702;24.896;2023-02-04T02:02:58;98929.81;;;2.77;100.00
8069;BME280;4077;43.702;24.896;2023-02-04T02:05:44;98945.53;;;2.89;100.00
8069;BME280;4077;43.702;24.896;2023-02-04T02:08:11;98910.91;;;2.70;100.00
8069;BME280;4077;43.702;24.896;2023-02-04T02:10:39;98933.53;;;2.87;100.00
8069;BME280;4077;43.702;24.896;2023-02-04T02:13:06;98936.59;;;2.77;100.00
8069;BME280;4077;43.702;24.896;2023-02-04T02:15:33;98909.69;;;2.59;100.00
8069;BME280;4077;43.702;24.896;2023-02-04T02:17:59;98926.28;;;2.73;100.00
8069;BME280;4077;43.702;24.896;2023-02-04T02:20:25;98926.19;;;2.70;100.00
8069;BME280;4077;43.702;24.896;2023-02-04T02:25:29;98920.91;;;2.64;100.00
8069;BME280;4077;43.702;24.896;2023-02-04T02:27:56;98904.75;;;2.64;100.00
8069;BME280;4077;43.702;24.896;2023-02-04T02:30:22;98916.91;;;2.72;100.00
8069;BME280;4077;43.702;24.896;2023-02-04T02:32:49;98907.53;;;2.71;100.00
8069;BME280;4077;43.702;24.896;2023-02-04T02:35:16;98912.75;;;2.74;100.00
8069;BME280;4077;43.702;24.896;2023-02-04T02:37:42;98914.69;;;2.82;100.00
8069;BME280;4077;43.702;24.896;2023-02-04T02:40:09;98915.44;;;2.79;100.00
8069;BME280;4077;43.702;24.896;2023-02-04T02:42:34;98909.47;;;2.79;100.00
8069;BME280;4077;43.702;24.896;2023-02-04T02:45:02;98902.00;;;2.83;100.00
8069;BME280;4077;43.702;24.896;2023-02-04T02:47:29;98870.50;;;2.56;100.00
8069;BME280;4077;43.702;24.896;2023-02-04T02:49:55;98905.91;;;2.73;100.00
8069;BME280;4077;43.702;24.896;2023-02-04T02:52:20;98906.31;;;2.86;100.00
8069;BME280;4077;43.702;24.896;2023-02-04T02:54:47;98898.88;;;2.92;100.00
8069;BME280;4077;43.702;24.896;2023-02-04T02:57:19;98863.75;;;2.83;100.00
8069;BME280;4077;43.702;24.896;2023-02-04T02:59:45;98882.16;;;3.01;100.00
8069;BME280;4077;43.702;24.896;2023-02-04T03:02:13;98891.88;;;3.13;100.00
8069;BME280;4077;43.702;24.896;2023-02-04T03:04:43;98871.50;;;3.13;100.00
8069;BME280;4077;43.702;24.896;2023-02-04T03:07:11;98874.31;;;3.22;100.00
8069;BME280;4077;43.702;24.896;2023-02-04T03:09:37;98880.72;;;3.37;100.00
8069;BME280;4077;43.702;24.896;2023-02-04T03:12:04;98884.41;;;3.46;100.00
8069;BME280;4077;43.702;24.896;2023-02-04T03:14:30;98872.69;;;3.53;100.00
8069;BME280;4077;43.702;24.896;2023-02-04T03:16:56;98869.56;;;3.63;100.00
8069;BME280;4077;43.702;24.896;2023-02-04T03:19:25;98869.84;;;3.72;100.00
8069;BME280;4077;43.702;24.896;2023-02-04T03:21:52;98863.16;;;3.77;100.00
8069;BME280;4077;43.702;24.896;2023-02-04T03:24:18;98875.22;;;3.81;100.00
8069;BME280;4077;43.702;24.896;2023-02-04T03:26:43;98843.53;;;3.75;100.00
8069;BME280;4077;43.702;24.896;2023-02-04T03:29:09;98866.94;;;3.90;100.00
8069;BME280;4077;43.702;24.896;2023-02-04T03:31:35;98872.25;;;3.98;100.00
8069;BME280;4077;43.702;24.896;2023-02-04T03:34:02;98869.75;;;3.99;100.00
8069;BME280;4077;43.702;24.896;2023-02-04T03:36:27;98863.63;;;3.93;100.00
8069;BME280;4077;43.702;24.896;2023-02-04T03:38:53;98862.03;;;3.98;100.00
8069;BME280;4077;43.702;24.896;2023-02-04T03:41:18;98869.28;;;4.13;100.00
8069;BME280;4077;43.702;24.896;2023-02-04T03:43:44;98840.88;;;4.02;100.00
8069;BME280;4077;43.702;24.896;2023-02-04T03:46:09;98860.03;;;4.18;100.00
8069;BME280;4077;43.702;24.896;2023-02-04T03:48:35;98864.38;;;4.20;100.00
8069;BME280;4077;43.702;24.896;2023-02-04T03:51:00;98851.59;;;4.20;100.00
8069;BME280;4077;43.702;24.896;2023-02-04T03:53:25;98857.81;;;4.31;100.00
8069;BME280;4077;43.702;24.896;2023-02-04T03:55:51;98847.72;;;4.34;100.00
8069;BME280;4077;43.702;24.896;2023-02-04T03:58:16;98840.94;;;4.36;100.00
8069;BME280;4077;43.702;24.896;2023-02-04T04:00:42;98835.00;;;4.37;100.00
8069;BME280;4077;43.702;24.896;2023-02-04T04:03:07;98829.22;;;4.45;100.00
8069;BME280;4077;43.702;24.896;2023-02-04T04:05:33;98826.56;;;4.40;100.00
8069;BME280;4077;43.702;24.896;2023-02-04T04:07:58;98816.94;;;4.31;100.00
8069;BME280;4077;43.702;24.896;2023-02-04T04:10:24;98807.38;;;4.23;100.00
8069;BME280;4077;43.702;24.896;2023-02-04T04:12:50;98822.88;;;4.30;100.00
8069;BME280;4077;43.702;24.896;2023-02-04T04:15:15;98828.03;;;4.32;100.00
8069;BME280;4077;43.702;24.896;2023-02-04T04:17:41;98826.94;;;4.22;100.00
8069;BME280;4077;43.702;24.896;2023-02-04T04:20:07;98822.69;;;4.23;100.00
8069;BME280;4077;43.702;24.896;2023-02-04T04:22:32;98820.00;;;4.18;100.00
8069;BME280;4077;43.702;24.896;2023-02-04T04:24:58;98829.50;;;4.22;100.00
8069;BME280;4077;43.702;24.896;2023-02-04T04:27:23;98820.19;;;4.24;100.00
8069;BME280;4077;43.702;24.896;2023-02-04T04:29:50;98789.78;;;4.00;100.00
8069;BME280;4077;43.702;24.896;2023-02-04T04:32:15;98825.38;;;4.27;100.00
8069;BME280;4077;43.702;24.896;2023-02-04T04:34:41;98837.38;;;4.31;100.00
8069;BME280;4077;43.702;24.896;2023-02-04T04:37:06;98823.66;;;4.26;100.00
8069;BME280;4077;43.702;24.896;2023-02-04T04:39:32;98830.66;;;4.33;100.00
8069;BME280;4077;43.702;24.896;2023-02-04T04:41:57;98807.31;;;4.20;100.00
8069;BME280;4077;43.702;24.896;2023-02-04T04:44:23;98835.75;;;4.33;100.00
8069;BME280;4077;43.702;24.896;2023-02-04T04:46:48;98821.84;;;4.22;100.00
8069;BME280;4077;43.702;24.896;2023-02-04T04:49:13;98838.25;;;4.32;100.00
8069;BME280;4077;43.702;24.896;2023-02-04T04:51:40;98832.13;;;4.25;100.00
8069;BME280;4077;43.702;24.896;2023-02-04T04:54:06;98839.94;;;4.31;100.00
8069;BME280;4077;43.702;24.896;2023-02-04T04:56:32;98824.06;;;4.10;100.00
8069;BME280;4077;43.702;24.896;2023-02-04T04:58:57;98845.19;;;4.36;100.00
8069;BME280;4077;43.702;24.896;2023-02-04T05:01:22;98847.78;;;4.39;100.00
8069;BME280;4077;43.702;24.896;2023-02-04T05:03:48;98860.03;;;4.51;100.00
8069;BME280;4077;43.702;24.896;2023-02-04T05:06:14;98863.34;;;4.47;100.00
8069;BME280;4077;43.702;24.896;2023-02-04T05:08:40;98845.34;;;4.42;100.00
8069;BME280;4077;43.702;24.896;2023-02-04T05:11:05;98861.47;;;4.74;100.00
8069;BME280;4077;43.702;24.896;2023-02-04T05:13:31;98843.34;;;4.65;100.00
8069;BME280;4077;43.702;24.896;2023-02-04T05:15:56;98838.06;;;4.59;100.00
8069;BME280;4077;43.702;24.896;2023-02-04T05:18:21;98842.50;;;4.66;100.00
8069;BME280;4077;43.702;24.896;2023-02-04T05:20:47;98853.72;;;4.71;100.00
8069;BME280;4077;43.702;24.896;2023-02-04T05:23:12;98856.56;;;4.82;100.00
8069;BME280;4077;43.702;24.896;2023-02-04T05:25:38;98855.53;;;4.75;100.00
8069;BME280;4077;43.702;24.896;2023-02-04T05:28:03;98856.28;;;4.71;100.00
8069;BME280;4077;43.702;24.896;2023-02-04T05:30:29;98860.13;;;4.54;100.00
8069;BME280;4077;43.702;24.896;2023-02-04T05:32:55;98871.91;;;4.49;100.00
8069;BME280;4077;43.702;24.896;2023-02-04T05:35:20;98857.84;;;4.66;100.00
8069;BME280;4077;43.702;24.896;2023-02-04T05:37:45;98841.16;;;4.46;100.00
8069;BME280;4077;43.702;24.896;2023-02-04T05:40:11;98870.50;;;4.60;100.00
8069;BME280;4077;43.702;24.896;2023-02-04T05:42:37;98863.56;;;4.56;100.00
8069;BME280;4077;43.702;24.896;2023-02-04T05:45:03;98870.78;;;4.72;100.00
8069;BME280;4077;43.702;24.896;2023-02-04T05:47:28;98875.91;;;4.72;100.00
8069;BME280;4077;43.702;24.896;2023-02-04T05:49:54;98875.06;;;4.73;100.00
8069;BME280;4077;43.702;24.896;2023-02-04T05:52:19;98862.38;;;4.76;100.00
8069;BME280;4077;43.702;24.896;2023-02-04T05:54:44;98872.75;;;4.82;100.00
8069;BME280;4077;43.702;24.896;2023-02-04T05:57:10;98880.31;;;4.78;100.00
8069;BME280;4077;43.702;24.896;2023-02-04T05:59:35;98871.09;;;4.84;100.00
8069;BME280;4077;43.702;24.896;2023-02-04T06:02:01;98871.25;;;4.90;100.00
8069;BME280;4077;43.702;24.896;2023-02-04T06:04:26;98879.91;;;4.97;100.00
8069;BME280;4077;43.702;24.896;2023-02-04T06:06:51;98871.03;;;4.81;100.00
8069;BME280;4077;43.702;24.896;2023-02-04T06:09:17;98878.91;;;4.90;100.00
8069;BME280;4077;43.702;24.896;2023-02-04T06:11:42;98879.81;;;4.92;100.00
8069;BME280;4077;43.702;24.896;2023-02-04T06:14:08;98855.53;;;4.75;100.00
8069;BME280;4077;43.702;24.896;2023-02-04T06:16:35;98864.44;;;4.91;100.00
8069;BME280;4077;43.702;24.896;2023-02-04T06:19:00;98877.56;;;5.06;100.00
8069;BME280;4077;43.702;24.896;2023-02-04T06:21:26;98887.03;;;5.09;100.00
8069;BME280;4077;43.702;24.896;2023-02-04T06:23:51;98857.63;;;4.91;100.00
8069;BME280;4077;43.702;24.896;2023-02-04T06:26:16;98887.19;;;5.15;100.00
8069;BME280;4077;43.702;24.896;2023-02-04T06:28:42;98885.22;;;5.05;100.00
8069;BME280;4077;43.702;24.896;2023-02-04T06:31:07;98885.41;;;5.14;100.00
8069;BME280;4077;43.702;24.896;2023-02-04T06:33:34;98887.44;;;5.27;100.00
8069;BME280;4077;43.702;24.896;2023-02-04T06:36:01;98889.63;;;5.12;100.00
8069;BME280;4077;43.702;24.896;2023-02-04T06:38:26;98873.22;;;5.02;100.00
8069;BME280;4077;43.702;24.896;2023-02-04T06:40:51;98880.13;;;5.06;100.00
8069;BME280;4077;43.702;24.896;2023-02-04T06:43:18;98829.81;;;4.69;100.00
8069;BME280;4077;43.702;24.896;2023-02-04T06:45:43;98893.22;;;5.18;100.00
8069;BME280;4077;43.702;24.896;2023-02-04T06:48:09;98881.66;;;4.98;100.00
8069;BME280;4077;43.702;24.896;2023-02-04T06:50:34;98889.44;;;5.03;100.00
8069;BME280;4077;43.702;24.896;2023-02-04T06:52:59;98872.06;;;4.89;100.00
8069;BME280;4077;43.702;24.896;2023-02-04T06:55:25;98894.47;;;5.00;100.00
8069;BME280;4077;43.702;24.896;2023-02-04T06:57:50;98884.91;;;4.92;100.00
8069;BME280;4077;43.702;24.896;2023-02-04T07:00:16;98891.75;;;4.93;100.00
8069;BME280;4077;43.702;24.896;2023-02-04T07:02:41;98901.91;;;4.90;100.00
8069;BME280;4077;43.702;24.896;2023-02-04T07:05:07;98892.19;;;4.76;100.00
8069;BME280;4077;43.702;24.896;2023-02-04T07:07:33;98864.59;;;4.62;100.00
8069;BME280;4077;43.702;24.896;2023-02-04T07:09:59;98889.50;;;4.71;100.00
8069;BME280;4077;43.702;24.896;2023-02-04T07:12:24;98883.06;;;4.87;100.00
8069;BME280;4077;43.702;24.896;2023-02-04T07:14:50;98884.50;;;4.74;100.00
8069;BME280;4077;43.702;24.896;2023-02-04T07:17:15;98870.63;;;4.66;100.00
8069;BME280;4077;43.702;24.896;2023-02-04T07:19:41;98879.06;;;4.62;100.00
8069;BME280;4077;43.702;24.896;2023-02-04T07:22:06;98873.94;;;4.62;100.00
8069;BME280;4077;43.702;24.896;2023-02-04T07:24:31;98868.75;;;4.59;100.00
8069;BME280;4077;43.702;24.896;2023-02-04T07:26:57;98881.72;;;4.66;100.00
8069;BME280;4077;43.702;24.896;2023-02-04T07:29:22;98879.44;;;4.77;100.00
8069;BME280;4077;43.702;24.896;2023-02-04T07:31:48;98870.56;;;4.63;100.00
8069;BME280;4077;43.702;24.896;2023-02-04T07:34:16;98883.56;;;4.72;100.00
8069;BME280;4077;43.702;24.896;2023-02-04T07:36:41;98878.59;;;4.78;100.00
8069;BME280;4077;43.702;24.896;2023-02-04T07:39:08;98881.41;;;4.87;100.00
8069;BME280;4077;43.702;24.896;2023-02-04T07:41:33;98892.34;;;4.82;100.00
8069;BME280;4077;43.702;24.896;2023-02-04T07:43:59;98890.84;;;4.90;100.00
8069;BME280;4077;43.702;24.896;2023-02-04T07:46:25;98901.28;;;4.99;100.00
8069;BME280;4077;43.702;24.896;2023-02-04T07:48:50;98895.31;;;5.00;100.00
8069;BME280;4077;43.702;24.896;2023-02-04T07:51:15;98880.81;;;4.99;100.00
8069;BME280;4077;43.702;24.896;2023-02-04T07:53:41;98898.28;;;5.17;100.00
8069;BME280;4077;43.702;24.896;2023-02-04T07:56:06;98892.28;;;5.15;100.00
8069;BME280;4077;43.702;24.896;2023-02-04T07:58:32;98876.66;;;5.03;100.00
8069;BME280;4077;43.702;24.896;2023-02-04T08:00:57;98843.78;;;4.83;100.00
8069;BME280;4077;43.702;24.896;2023-02-04T08:03:23;98896.22;;;5.38;100.00
8069;BME280;4077;43.702;24.896;2023-02-04T08:05:48;98900.81;;;5.53;100.00
8069;BME280;4077;43.702;24.896;2023-02-04T08:08:14;98904.41;;;5.61;100.00
8069;BME280;4077;43.702;24.896;2023-02-04T08:10:40;98896.94;;;5.72;100.00
8069;BME280;4077;43.702;24.896;2023-02-04T08:13:05;98908.16;;;5.77;100.00
8069;BME280;4077;43.702;24.896;2023-02-04T08:15:31;98916.31;;;5.98;100.00
8069;BME280;4077;43.702;24.896;2023-02-04T08:17:57;98910.38;;;6.01;100.00
8069;BME280;4077;43.702;24.896;2023-02-04T08:20:22;98913.84;;;6.03;100.00
8069;BME280;4077;43.702;24.896;2023-02-04T08:22:47;98913.63;;;5.92;100.00
8069;BME280;4077;43.702;24.896;2023-02-04T08:25:13;98886.56;;;5.64;100.00
8069;BME280;4077;43.702;24.896;2023-02-04T08:27:38;98913.97;;;6.11;100.00
8069;BME280;4077;43.702;24.896;2023-02-04T08:30:04;98914.03;;;6.12;100.00
8069;BME280;4077;43.702;24.896;2023-02-04T08:32:30;98919.78;;;6.00;100.00
8069;BME280;4077;43.702;24.896;2023-02-04T08:34:58;98920.81;;;6.10;100.00
8069;BME280;4077;43.702;24.896;2023-02-04T08:37:24;98911.06;;;5.92;100.00
8069;BME280;4077;43.702;24.896;2023-02-04T08:39:50;98908.22;;;6.21;100.00
8069;BME280;4077;43.702;24.896;2023-02-04T08:42:15;98904.22;;;6.35;100.00
8069;BME280;4077;43.702;24.896;2023-02-04T08:44:41;98911.03;;;6.33;100.00
8069;BME280;4077;43.702;24.896;2023-02-04T08:47:07;98915.34;;;6.37;100.00
8069;BME280;4077;43.702;24.896;2023-02-04T08:49:33;98886.06;;;6.24;100.00
8069;BME280;4077;43.702;24.896;2023-02-04T08:51:58;98916.75;;;6.20;100.00
8069;BME280;4077;43.702;24.896;2023-02-04T08:54:23;98904.78;;;6.19;100.00
8069;BME280;4077;43.702;24.896;2023-02-04T08:56:50;98895.28;;;6.15;100.00
8069;BME280;4077;43.702;24.896;2023-02-04T08:59:16;98918.81;;;6.39;100.00
8069;BME280;4077;43.702;24.896;2023-02-04T09:01:41;98906.50;;;6.20;100.00
8069;BME280;4077;43.702;24.896;2023-02-04T09:04:07;98911.75;;;6.26;100.00
8069;BME280;4077;43.702;24.896;2023-02-04T09:06:32;98920.47;;;6.37;100.00
8069;BME280;4077;43.702;24.896;2023-02-04T09:08:58;98899.72;;;6.23;100.00
8069;BME280;4077;43.702;24.896;2023-02-04T09:11:23;98925.81;;;6.46;100.00
8069;BME280;4077;43.702;24.896;2023-02-04T09:13:48;98929.47;;;6.59;100.00
8069;BME280;4077;43.702;24.896;2023-02-04T09:16:14;98923.72;;;6.74;100.00
8069;BME280;4077;43.702;24.896;2023-02-04T09:18:42;98903.97;;;6.70;100.00
8069;BME280;4077;43.702;24.896;2023-02-04T09:21:07;98919.38;;;6.70;100.00
8069;BME280;4077;43.702;24.896;2023-02-04T09:23:33;98921.91;;;6.67;100.00
8069;BME280;4077;43.702;24.896;2023-02-04T09:25:58;98922.50;;;6.53;100.00
8069;BME280;4077;43.702;24.896;2023-02-04T09:28:25;98929.13;;;6.42;100.00
8069;BME280;4077;43.702;24.896;2023-02-04T09:30:50;98921.16;;;6.74;100.00
8069;BME280;4077;43.702;24.896;2023-02-04T09:33:16;98922.25;;;6.87;100.00
8069;BME280;4077;43.702;24.896;2023-02-04T09:35:41;98920.50;;;6.85;100.00
8069;BME280;4077;43.702;24.896;2023-02-04T09:38:07;98907.31;;;7.14;100.00
8069;BME280;4077;43.702;24.896;2023-02-04T09:40:35;98924.78;;;7.39;100.00
8069;BME280;4077;43.702;24.896;2023-02-04T09:43:02;98924.19;;;7.57;100.00
8069;BME280;4077;43.702;24.896;2023-02-04T09:45:31;98917.34;;;7.56;100.00
8069;BME280;4077;43.702;24.896;2023-02-04T09:47:58;98913.66;;;7.39;100.00
8069;BME280;4077;43.702;24.896;2023-02-04T09:50:26;98912.81;;;7.40;100.00
8069;BME280;4077;43.702;24.896;2023-02-04T09:52:54;98911.97;;;7.41;100.00
8069;BME280;4077;43.702;24.896;2023-02-04T09:55:26;98906.13;;;7.51;100.00
8069;BME280;4077;43.702;24.896;2023-02-04T09:57:53;98908.41;;;7.93;100.00
8069;BME280;4077;43.702;24.896;2023-02-04T10:00:23;98899.28;;;8.20;100.00
8069;BME280;4077;43.702;24.896;2023-02-04T10:02:49;98905.16;;;8.08;100.00
8069;BME280;4077;43.702;24.896;2023-02-04T10:05:32;98910.72;;;8.43;100.00
8069;BME280;4077;43.702;24.896;2023-02-04T10:07:58;98899.69;;;8.52;100.00
8069;BME280;4077;43.702;24.896;2023-02-04T10:10:25;98906.50;;;8.50;100.00
8069;BME280;4077;43.702;24.896;2023-02-04T10:12:55;98908.19;;;8.45;100.00
8069;BME280;4077;43.702;24.896;2023-02-04T10:15:50;98910.91;;;8.59;100.00
8069;BME280;4077;43.702;24.896;2023-02-04T10:18:24;98892.91;;;8.60;100.00
8069;BME280;4077;43.702;24.896;2023-02-04T10:20:56;98904.56;;;8.31;100.00
8069;BME280;4077;43.702;24.896;2023-02-04T10:23:21;98912.22;;;8.28;100.00
8069;BME280;4077;43.702;24.896;2023-02-04T10:25:48;98898.84;;;8.55;100.00
8069;BME280;4077;43.702;24.896;2023-02-04T10:28:13;98914.59;;;8.91;100.00
8069;BME280;4077;43.702;24.896;2023-02-04T10:30:41;98913.84;;;9.03;100.00
8069;BME280;4077;43.702;24.896;2023-02-04T10:33:14;98897.44;;;8.89;100.00
8069;BME280;4077;43.702;24.896;2023-02-04T10:35:45;98882.72;;;8.72;100.00
8069;BME280;4077;43.702;24.896;2023-02-04T10:38:11;98915.53;;;8.98;97.95
8069;BME280;4077;43.702;24.896;2023-02-04T10:40:36;98899.31;;;9.10;97.35
8069;BME280;4077;43.702;24.896;2023-02-04T10:43:09;98915.69;;;9.19;94.96
8069;BME280;4077;43.702;24.896;2023-02-04T10:45:35;98903.56;;;9.00;91.30
8069;BME280;4077;43.702;24.896;2023-02-04T10:48:01;98904.47;;;9.07;93.74
8069;BME280;4077;43.702;24.896;2023-02-04T10:50:27;98902.81;;;9.13;91.95
8069;BME280;4077;43.702;24.896;2023-02-04T10:52:57;98902.81;;;9.19;93.98
8069;BME280;4077;43.702;24.896;2023-02-04T10:55:46;98887.41;;;9.24;99.75
8069;BME280;4077;43.702;24.896;2023-02-04T10:58:20;98894.31;;;9.32;100.00
8069;BME280;4077;43.702;24.896;2023-02-04T11:00:48;98884.88;;;9.27;94.24
8069;BME280;4077;43.702;24.896;2023-02-04T11:03:28;98896.94;;;9.36;94.17
8069;BME280;4077;43.702;24.896;2023-02-04T11:05:57;98880.53;;;9.23;100.00
8069;BME280;4077;43.702;24.896;2023-02-04T11:08:28;98885.72;;;9.27;98.20
8069;BME280;4077;43.702;24.896;2023-02-04T11:10:58;98885.81;;;9.44;98.89
8069;BME280;4077;43.702;24.896;2023-02-04T11:18:49;98887.69;;;9.68;95.99
8069;BME280;4077;43.702;24.896;2023-02-04T11:21:42;98857.59;;;9.66;95.34
8069;BME280;4077;43.702;24.896;2023-02-04T11:26:40;98889.44;;;9.78;90.32
8069;BME280;4077;43.702;24.896;2023-02-04T11:39:40;98887.66;;;9.62;93.24
8069;BME280;4077;43.702;24.896;2023-02-04T11:42:17;98890.16;;;9.50;92.69
8069;BME280;4077;43.702;24.896;2023-02-04T11:45:01;98887.63;;;9.59;93.34
8069;BME280;4077;43.702;24.896;2023-02-04T11:47:36;98881.69;;;9.69;90.97
8069;BME280;4077;43.702;24.896;2023-02-04T11:50:10;98884.19;;;9.58;91.03
8069;BME280;4077;43.702;24.896;2023-02-04T11:52:37;98879.97;;;9.70;91.12
8069;BME280;4077;43.702;24.896;2023-02-04T11:55:03;98890.28;;;9.74;93.73
8069;BME280;4077;43.702;24.896;2023-02-04T11:57:28;98874.75;;;9.56;89.11
8069;BME280;4077;43.702;24.896;2023-02-04T11:59:54;98846.34;;;9.47;92.65
8069;BME280;4077;43.702;24.896;2023-02-04T12:02:22;98845.47;;;9.42;94.67
8069;BME280;4077;43.702;24.896;2023-02-04T12:04:55;98870.38;;;9.43;90.68
8069;BME280;4077;43.702;24.896;2023-02-04T12:07:27;98852.13;;;9.11;94.60
8069;BME280;4077;43.702;24.896;2023-02-04T12:09:53;98852.03;;;8.98;98.44
8069;BME280;4077;43.702;24.896;2023-02-04T12:12:29;98865.75;;;8.93;99.48
8069;BME280;4077;43.702;24.896;2023-02-04T12:15:02;98859.63;;;8.79;100.00
8069;BME280;4077;43.702;24.896;2023-02-04T12:17:33;98836.25;;;8.54;100.00
8069;BME280;4077;43.702;24.896;2023-02-04T12:19:58;98847.44;;;8.59;100.00
8069;BME280;4077;43.702;24.896;2023-02-04T12:22:24;98847.44;;;8.59;100.00
8069;BME280;4077;43.702;24.896;2023-02-04T12:24:49;98831.97;;;8.55;100.00
8069;BME280;4077;43.702;24.896;2023-02-04T12:27:16;98841.56;;;8.75;100.00
8069;BME280;4077;43.702;24.896;2023-02-04T12:29:42;98829.53;;;8.71;100.00
8069;BME280;4077;43.702;24.896;2023-02-04T12:32:07;98836.47;;;8.82;100.00
8069;BME280;4077;43.702;24.896;2023-02-04T12:34:33;98826.88;;;8.61;100.00
8069;BME280;4077;43.702;24.896;2023-02-04T12:36:58;98833.75;;;8.62;100.00
8069;BME280;4077;43.702;24.896;2023-02-04T12:39:23;98826.13;;;8.75;100.00
8069;BME280;4077;43.702;24.896;2023-02-04T12:41:49;98855.56;;;9.08;100.00
8069;BME280;4077;43.702;24.896;2023-02-04T12:44:14;98838.28;;;8.95;100.00
8069;BME280;4077;43.702;24.896;2023-02-04T12:46:41;98831.22;;;8.69;98.67
8069;BME280;4077;43.702;24.896;2023-02-04T12:49:06;98847.47;;;8.62;100.00
8069;BME280;4077;43.702;24.896;2023-02-04T12:51:32;98812.88;;;8.33;100.00
8069;BME280;4077;43.702;24.896;2023-02-04T12:53:57;98824.88;;;8.34;100.00
8069;BME280;4077;43.702;24.896;2023-02-04T12:56:23;98835.25;;;8.40;100.00
8069;BME280;4077;43.702;24.896;2023-02-04T12:58:48;98842.81;;;8.25;100.00
8069;BME280;4077;43.702;24.896;2023-02-04T13:01:14;98845.31;;;8.23;100.00
8069;BME280;4077;43.702;24.896;2023-02-04T13:03:39;98836.03;;;8.33;100.00
8069;BME280;4077;43.702;24.896;2023-02-04T13:06:05;98839.31;;;8.19;100.00
8069;BME280;4077;43.702;24.896;2023-02-04T13:08:30;98807.22;;;7.82;100.00
8069;BME280;4077;43.702;24.896;2023-02-04T13:10:56;98791.50;;;7.56;100.00
8069;BME280;4077;43.702;24.896;2023-02-04T13:13:21;98846.66;;;7.89;100.00
8069;BME280;4077;43.702;24.896;2023-02-04T13:15:47;98840.63;;;7.84;100.00
8069;BME280;4077;43.702;24.896;2023-02-04T13:18:13;98837.91;;;7.73;100.00
8069;BME280;4077;43.702;24.896;2023-02-04T13:20:39;98824.03;;;7.57;100.00
8069;BME280;4077;43.702;24.896;2023-02-04T13:23:05;98843.81;;;7.64;100.00
8069;BME280;4077;43.702;24.896;2023-02-04T13:25:30;98824.81;;;7.50;100.00
8069;BME280;4077;43.702;24.896;2023-02-04T13:27:56;98849.78;;;7.62;100.00
8069;BME280;4077;43.702;24.896;2023-02-04T13:30:21;98850.75;;;7.73;100.00